sensor_id;sensor_type;location;lat;lon;timestamp;P1;durP1;ratioP1;P2;durP2;ratioP2
61590;SDS011;57639;52.410;-1.966;2022-08-20T00:02:36;1.30;;;0.60;;
61590;SDS011;57639;52.410;-1.966;2022-08-20T00:05:47;1.88;;;0.70;;
61590;SDS011;57639;52.410;-1.966;2022-08-20T00:08:57;2.00;;;0.80;;
61590;SDS011;57639;52.410;-1.966;2022-08-20T00:12:05;1.10;;;0.63;;
61590;SDS011;57639;52.410;-1.966;2022-08-20T00:15:15;1.88;;;0.77;;
61590;SDS011;57639;52.410;-1.966;2022-08-20T00:18:24;2.35;;;0.70;;
61590;SDS011;57639;52.410;-1.966;2022-08-20T00:21:33;1.93;;;0.80;;
61590;SDS011;57639;52.410;-1.966;2022-08-20T00:24:41;1.90;;;0.70;;
61590;SDS011;57639;52.410;-1.966;2022-08-20T00:27:47;1.75;;;0.60;;
61590;SDS011;57639;52.410;-1.966;2022-08-20T00:30:58;2.33;;;0.80;;
61590;SDS011;57639;52.410;-1.966;2022-08-20T00:34:07;2.17;;;0.80;;
61590;SDS011;57639;52.410;-1.966;2022-08-20T00:37:14;1.50;;;0.70;;
61590;SDS011;57639;52.410;-1.966;2022-08-20T00:40:21;1.77;;;0.70;;
61590;SDS011;57639;52.410;-1.966;2022-08-20T00:43:33;1.50;;;0.68;;
61590;SDS011;57639;52.410;-1.966;2022-08-20T00:46:45;2.72;;;0.70;;
61590;SDS011;57639;52.410;-1.966;2022-08-20T00:49:53;1.92;;;0.60;;
61590;SDS011;57639;52.410;-1.966;2022-08-20T00:52:59;1.85;;;0.80;;
61590;SDS011;57639;52.410;-1.966;2022-08-20T00:56:09;2.08;;;0.70;;
61590;SDS011;57639;52.410;-1.966;2022-08-20T00:59:17;1.45;;;0.57;;
61590;SDS011;57639;52.410;-1.966;2022-08-20T01:02:31;2.40;;;0.70;;
61590;SDS011;57639;52.410;-1.966;2022-08-20T01:05:37;2.72;;;0.80;;
61590;SDS011;57639;52.410;-1.966;2022-08-20T01:08:47;1.67;;;0.80;;
61590;SDS011;57639;52.410;-1.966;2022-08-20T01:11:53;2.17;;;0.80;;
61590;SDS011;57639;52.410;-1.966;2022-08-20T01:15:03;2.35;;;0.90;;
61590;SDS011;57639;52.410;-1.966;2022-08-20T01:18:15;1.20;;;0.70;;
61590;SDS011;57639;52.410;-1.966;2022-08-20T01:21:27;2.72;;;0.70;;
61590;SDS011;57639;52.410;-1.966;2022-08-20T01:24:35;1.00;;;0.60;;
61590;SDS011;57639;52.410;-1.966;2022-08-20T01:27:46;1.47;;;0.70;;
61590;SDS011;57639;52.410;-1.966;2022-08-20T01:30:59;1.88;;;0.82;;
61590;SDS011;57639;52.410;-1.966;2022-08-20T01:34:08;2.47;;;0.90;;
61590;SDS011;57639;52.410;-1.966;2022-08-20T01:37:14;2.47;;;0.80;;
61590;SDS011;57639;52.410;-1.966;2022-08-20T01:43:56;1.67;;;0.80;;
61590;SDS011;57639;52.410;-1.966;2022-08-20T01:47:07;1.92;;;0.60;;
61590;SDS011;57639;52.410;-1.966;2022-08-20T01:50:17;2.45;;;0.80;;
61590;SDS011;57639;52.410;-1.966;2022-08-20T01:53:31;2.00;;;0.80;;
61590;SDS011;57639;52.410;-1.966;2022-08-20T01:56:49;2.97;;;0.90;;
61590;SDS011;57639;52.410;-1.966;2022-08-20T02:00:03;2.20;;;0.52;;
61590;SDS011;57639;52.410;-1.966;2022-08-20T02:03:20;2.00;;;0.70;;
61590;SDS011;57639;52.410;-1.966;2022-08-20T02:06:29;2.03;;;0.82;;
61590;SDS011;57639;52.410;-1.966;2022-08-20T02:09:36;2.05;;;0.60;;
61590;SDS011;57639;52.410;-1.966;2022-08-20T02:12:44;1.60;;;0.60;;
61590;SDS011;57639;52.410;-1.966;2022-08-20T02:15:56;1.75;;;0.70;;
61590;SDS011;57639;52.410;-1.966;2022-08-20T02:19:05;1.40;;;0.77;;
61590;SDS011;57639;52.410;-1.966;2022-08-20T02:22:15;2.03;;;0.77;;
61590;SDS011;57639;52.410;-1.966;2022-08-20T02:25:27;1.70;;;0.80;;
61590;SDS011;57639;52.410;-1.966;2022-08-20T02:28:35;2.13;;;0.90;;
61590;SDS011;57639;52.410;-1.966;2022-08-20T02:31:47;1.17;;;0.70;;
61590;SDS011;57639;52.410;-1.966;2022-08-20T02:35:12;1.90;;;0.90;;
61590;SDS011;57639;52.410;-1.966;2022-08-20T02:38:21;3.53;;;0.70;;
61590;SDS011;57639;52.410;-1.966;2022-08-20T02:41:27;1.85;;;0.70;;
61590;SDS011;57639;52.410;-1.966;2022-08-20T02:44:35;2.67;;;0.82;;
61590;SDS011;57639;52.410;-1.966;2022-08-20T02:47:44;2.17;;;0.77;;
61590;SDS011;57639;52.410;-1.966;2022-08-20T02:50:55;1.27;;;0.60;;
61590;SDS011;57639;52.410;-1.966;2022-08-20T02:54:02;3.40;;;0.98;;
61590;SDS011;57639;52.410;-1.966;2022-08-20T02:57:11;2.17;;;0.80;;
61590;SDS011;57639;52.410;-1.966;2022-08-20T03:00:18;2.88;;;0.93;;
61590;SDS011;57639;52.410;-1.966;2022-08-20T03:03:30;1.92;;;0.70;;
61590;SDS011;57639;52.410;-1.966;2022-08-20T03:06:36;2.00;;;0.60;;
61590;SDS011;57639;52.410;-1.966;2022-08-20T03:09:44;2.00;;;0.70;;
61590;SDS011;57639;52.410;-1.966;2022-08-20T03:12:50;2.45;;;0.80;;
61590;SDS011;57639;52.410;-1.966;2022-08-20T03:15:59;2.90;;;0.90;;
61590;SDS011;57639;52.410;-1.966;2022-08-20T03:19:09;1.55;;;0.80;;
61590;SDS011;57639;52.410;-1.966;2022-08-20T03:22:17;2.20;;;0.82;;
61590;SDS011;57639;52.410;-1.966;2022-08-20T03:25:23;1.70;;;0.73;;
61590;SDS011;57639;52.410;-1.966;2022-08-20T03:28:32;2.15;;;0.75;;
61590;SDS011;57639;52.410;-1.966;2022-08-20T03:31:38;1.92;;;0.70;;
61590;SDS011;57639;52.410;-1.966;2022-08-20T03:34:48;2.28;;;0.75;;
61590;SDS011;57639;52.410;-1.966;2022-08-20T03:37:54;1.85;;;0.65;;
61590;SDS011;57639;52.410;-1.966;2022-08-20T03:41:02;1.77;;;0.73;;
61590;SDS011;57639;52.410;-1.966;2022-08-20T03:44:13;2.20;;;0.70;;
61590;SDS011;57639;52.410;-1.966;2022-08-20T03:47:21;1.63;;;0.70;;
61590;SDS011;57639;52.410;-1.966;2022-08-20T03:50:30;1.63;;;0.60;;
61590;SDS011;57639;52.410;-1.966;2022-08-20T03:53:38;1.95;;;0.80;;
61590;SDS011;57639;52.410;-1.966;2022-08-20T03:56:43;1.90;;;0.80;;
61590;SDS011;57639;52.410;-1.966;2022-08-20T03:59:51;2.20;;;0.80;;
61590;SDS011;57639;52.410;-1.966;2022-08-20T04:02:59;2.65;;;0.88;;
61590;SDS011;57639;52.410;-1.966;2022-08-20T04:06:10;2.78;;;1.10;;
61590;SDS011;57639;52.410;-1.966;2022-08-20T04:09:16;1.73;;;0.80;;
61590;SDS011;57639;52.410;-1.966;2022-08-20T04:12:24;2.92;;;0.82;;
61590;SDS011;57639;52.410;-1.966;2022-08-20T04:15:31;2.17;;;0.77;;
61590;SDS011;57639;52.410;-1.966;2022-08-20T04:18:40;1.48;;;0.70;;
61590;SDS011;57639;52.410;-1.966;2022-08-20T04:22:06;2.65;;;0.75;;
61590;SDS011;57639;52.410;-1.966;2022-08-20T04:25:16;2.10;;;0.70;;
61590;SDS011;57639;52.410;-1.966;2022-08-20T04:28:24;1.85;;;0.70;;
61590;SDS011;57639;52.410;-1.966;2022-08-20T04:31:33;2.55;;;0.75;;
61590;SDS011;57639;52.410;-1.966;2022-08-20T04:34:39;2.30;;;0.82;;
61590;SDS011;57639;52.410;-1.966;2022-08-20T04:37:56;2.53;;;0.82;;
61590;SDS011;57639;52.410;-1.966;2022-08-20T04:41:03;2.28;;;0.90;;
61590;SDS011;57639;52.410;-1.966;2022-08-20T04:44:25;3.38;;;0.80;;
61590;SDS011;57639;52.410;-1.966;2022-08-20T04:47:31;2.25;;;0.75;;
61590;SDS011;57639;52.410;-1.966;2022-08-20T04:50:39;2.92;;;0.90;;
61590;SDS011;57639;52.410;-1.966;2022-08-20T04:53:50;2.00;;;0.73;;
61590;SDS011;57639;52.410;-1.966;2022-08-20T04:56:59;1.92;;;0.70;;
61590;SDS011;57639;52.410;-1.966;2022-08-20T05:00:06;2.05;;;0.75;;
61590;SDS011;57639;52.410;-1.966;2022-08-20T05:03:18;1.67;;;0.80;;
61590;SDS011;57639;52.410;-1.966;2022-08-20T05:06:26;2.80;;;1.08;;
61590;SDS011;57639;52.410;-1.966;2022-08-20T05:09:38;2.75;;;0.70;;
61590;SDS011;57639;52.410;-1.966;2022-08-20T05:12:44;2.13;;;0.88;;
61590;SDS011;57639;52.410;-1.966;2022-08-20T05:15:59;3.17;;;1.00;;
61590;SDS011;57639;52.410;-1.966;2022-08-20T05:19:06;1.70;;;0.80;;
61590;SDS011;57639;52.410;-1.966;2022-08-20T05:25:24;5.75;;;1.90;;
61590;SDS011;57639;52.410;-1.966;2022-08-20T05:28:32;5.55;;;2.00;;
61590;SDS011;57639;52.410;-1.966;2022-08-20T05:31:59;5.70;;;2.10;;
61590;SDS011;57639;52.410;-1.966;2022-08-20T05:35:08;6.15;;;2.35;;
61590;SDS011;57639;52.410;-1.966;2022-08-20T05:38:16;8.77;;;2.42;;
61590;SDS011;57639;52.410;-1.966;2022-08-20T05:41:32;11.20;;;2.40;;
61590;SDS011;57639;52.410;-1.966;2022-08-20T05:44:38;4.47;;;1.70;;
61590;SDS011;57639;52.410;-1.966;2022-08-20T05:47:46;5.30;;;1.80;;
61590;SDS011;57639;52.410;-1.966;2022-08-20T05:50:57;5.85;;;1.92;;
61590;SDS011;57639;52.410;-1.966;2022-08-20T05:54:04;4.18;;;1.98;;
61590;SDS011;57639;52.410;-1.966;2022-08-20T05:57:13;4.57;;;1.63;;
61590;SDS011;57639;52.410;-1.966;2022-08-20T06:00:24;4.90;;;1.65;;
61590;SDS011;57639;52.410;-1.966;2022-08-20T06:03:30;5.75;;;1.85;;
61590;SDS011;57639;52.410;-1.966;2022-08-20T06:06:54;4.07;;;1.75;;
61590;SDS011;57639;52.410;-1.966;2022-08-20T06:10:01;4.10;;;1.30;;
61590;SDS011;57639;52.410;-1.966;2022-08-20T06:13:11;3.95;;;1.65;;
61590;SDS011;57639;52.410;-1.966;2022-08-20T06:16:17;5.20;;;1.77;;
61590;SDS011;57639;52.410;-1.966;2022-08-20T06:19:31;4.72;;;1.60;;
61590;SDS011;57639;52.410;-1.966;2022-08-20T06:22:38;3.85;;;1.50;;
61590;SDS011;57639;52.410;-1.966;2022-08-20T06:25:45;4.03;;;1.40;;
61590;SDS011;57639;52.410;-1.966;2022-08-20T06:28:55;3.53;;;1.33;;
61590;SDS011;57639;52.410;-1.966;2022-08-20T06:32:03;4.43;;;1.25;;
61590;SDS011;57639;52.410;-1.966;2022-08-20T06:35:09;2.95;;;1.33;;
61590;SDS011;57639;52.410;-1.966;2022-08-20T06:38:25;4.60;;;1.20;;
61590;SDS011;57639;52.410;-1.966;2022-08-20T06:41:38;3.75;;;1.20;;
61590;SDS011;57639;52.410;-1.966;2022-08-20T06:44:50;3.13;;;1.30;;
61590;SDS011;57639;52.410;-1.966;2022-08-20T06:47:57;3.10;;;1.20;;
61590;SDS011;57639;52.410;-1.966;2022-08-20T06:51:06;4.22;;;1.20;;
61590;SDS011;57639;52.410;-1.966;2022-08-20T06:54:12;3.08;;;1.25;;
61590;SDS011;57639;52.410;-1.966;2022-08-20T06:57:20;3.33;;;1.10;;
61590;SDS011;57639;52.410;-1.966;2022-08-20T07:00:28;3.17;;;1.40;;
61590;SDS011;57639;52.410;-1.966;2022-08-20T07:03:37;2.00;;;1.10;;
61590;SDS011;57639;52.410;-1.966;2022-08-20T07:06:55;3.50;;;1.20;;
61590;SDS011;57639;52.410;-1.966;2022-08-20T07:10:03;4.88;;;1.33;;
61590;SDS011;57639;52.410;-1.966;2022-08-20T07:13:10;2.80;;;1.10;;
61590;SDS011;57639;52.410;-1.966;2022-08-20T07:16:21;2.45;;;0.98;;
61590;SDS011;57639;52.410;-1.966;2022-08-20T07:19:28;3.67;;;1.42;;
61590;SDS011;57639;52.410;-1.966;2022-08-20T07:22:35;3.05;;;1.33;;
61590;SDS011;57639;52.410;-1.966;2022-08-20T07:25:42;3.05;;;1.10;;
61590;SDS011;57639;52.410;-1.966;2022-08-20T07:28:51;2.17;;;0.85;;
61590;SDS011;57639;52.410;-1.966;2022-08-20T07:32:00;3.67;;;0.93;;
61590;SDS011;57639;52.410;-1.966;2022-08-20T07:35:31;2.53;;;1.10;;
61590;SDS011;57639;52.410;-1.966;2022-08-20T07:38:37;2.92;;;1.05;;
61590;SDS011;57639;52.410;-1.966;2022-08-20T07:41:49;2.53;;;0.93;;
61590;SDS011;57639;52.410;-1.966;2022-08-20T07:45:04;3.15;;;1.20;;
61590;SDS011;57639;52.410;-1.966;2022-08-20T07:48:16;2.55;;;1.08;;
61590;SDS011;57639;52.410;-1.966;2022-08-20T07:51:32;2.60;;;0.90;;
61590;SDS011;57639;52.410;-1.966;2022-08-20T07:54:40;3.05;;;1.08;;
61590;SDS011;57639;52.410;-1.966;2022-08-20T07:57:46;2.33;;;0.80;;
61590;SDS011;57639;52.410;-1.966;2022-08-20T08:00:54;2.60;;;1.10;;
61590;SDS011;57639;52.410;-1.966;2022-08-20T08:04:03;3.22;;;1.20;;
61590;SDS011;57639;52.410;-1.966;2022-08-20T08:07:10;3.35;;;1.13;;
61590;SDS011;57639;52.410;-1.966;2022-08-20T08:10:19;2.92;;;1.00;;
61590;SDS011;57639;52.410;-1.966;2022-08-20T08:13:29;1.73;;;0.90;;
61590;SDS011;57639;52.410;-1.966;2022-08-20T08:19:51;2.20;;;0.90;;
61590;SDS011;57639;52.410;-1.966;2022-08-20T08:22:56;2.53;;;0.98;;
61590;SDS011;57639;52.410;-1.966;2022-08-20T08:26:04;2.67;;;1.10;;
61590;SDS011;57639;52.410;-1.966;2022-08-20T08:29:19;2.33;;;1.00;;
61590;SDS011;57639;52.410;-1.966;2022-08-20T08:32:26;2.90;;;1.10;;
61590;SDS011;57639;52.410;-1.966;2022-08-20T08:35:38;3.23;;;1.10;;
61590;SDS011;57639;52.410;-1.966;2022-08-20T08:38:48;4.45;;;0.98;;
61590;SDS011;57639;52.410;-1.966;2022-08-20T08:41:55;3.17;;;1.02;;
61590;SDS011;57639;52.410;-1.966;2022-08-20T08:45:06;2.88;;;1.08;;
61590;SDS011;57639;52.410;-1.966;2022-08-20T08:48:14;3.20;;;0.90;;
61590;SDS011;57639;52.410;-1.966;2022-08-20T08:51:32;1.65;;;0.77;;
61590;SDS011;57639;52.410;-1.966;2022-08-20T08:54:42;2.58;;;1.02;;
61590;SDS011;57639;52.410;-1.966;2022-08-20T08:57:54;1.88;;;0.90;;
61590;SDS011;57639;52.410;-1.966;2022-08-20T09:01:19;3.13;;;1.08;;
61590;SDS011;57639;52.410;-1.966;2022-08-20T09:04:49;2.00;;;0.90;;
61590;SDS011;57639;52.410;-1.966;2022-08-20T09:08:00;2.20;;;1.00;;
61590;SDS011;57639;52.410;-1.966;2022-08-20T09:11:09;1.73;;;0.93;;
61590;SDS011;57639;52.410;-1.966;2022-08-20T09:14:14;2.83;;;1.10;;
61590;SDS011;57639;52.410;-1.966;2022-08-20T09:17:22;3.08;;;1.15;;
61590;SDS011;57639;52.410;-1.966;2022-08-20T09:20:28;2.35;;;0.80;;
61590;SDS011;57639;52.410;-1.966;2022-08-20T09:23:39;3.22;;;0.90;;
61590;SDS011;57639;52.410;-1.966;2022-08-20T09:26:45;2.53;;;1.27;;
61590;SDS011;57639;52.410;-1.966;2022-08-20T09:29:52;2.50;;;0.98;;
61590;SDS011;57639;52.410;-1.966;2022-08-20T09:32:58;2.35;;;0.80;;
61590;SDS011;57639;52.410;-1.966;2022-08-20T09:36:06;3.78;;;1.25;;
61590;SDS011;57639;52.410;-1.966;2022-08-20T09:39:35;3.38;;;1.20;;
61590;SDS011;57639;52.410;-1.966;2022-08-20T09:42:43;3.08;;;1.10;;
61590;SDS011;57639;52.410;-1.966;2022-08-20T09:45:49;2.33;;;1.02;;
61590;SDS011;57639;52.410;-1.966;2022-08-20T09:48:57;2.47;;;1.17;;
61590;SDS011;57639;52.410;-1.966;2022-08-20T09:52:03;3.15;;;1.10;;
61590;SDS011;57639;52.410;-1.966;2022-08-20T09:55:19;3.13;;;1.10;;
61590;SDS011;57639;52.410;-1.966;2022-08-20T09:58:29;2.67;;;1.10;;
61590;SDS011;57639;52.410;-1.966;2022-08-20T10:01:41;2.55;;;1.10;;
61590;SDS011;57639;52.410;-1.966;2022-08-20T10:04:46;3.22;;;1.10;;
61590;SDS011;57639;52.410;-1.966;2022-08-20T10:07:54;4.18;;;1.38;;
61590;SDS011;57639;52.410;-1.966;2022-08-20T10:11:03;2.88;;;1.30;;
61590;SDS011;57639;52.410;-1.966;2022-08-20T10:14:11;3.35;;;1.17;;
61590;SDS011;57639;52.410;-1.966;2022-08-20T10:17:16;2.50;;;1.20;;
61590;SDS011;57639;52.410;-1.966;2022-08-20T10:20:24;2.97;;;1.10;;
61590;SDS011;57639;52.410;-1.966;2022-08-20T10:23:30;2.13;;;1.00;;
61590;SDS011;57639;52.410;-1.966;2022-08-20T10:26:40;2.42;;;1.00;;
61590;SDS011;57639;52.410;-1.966;2022-08-20T10:29:46;1.85;;;1.17;;
61590;SDS011;57639;52.410;-1.966;2022-08-20T10:32:54;2.85;;;1.02;;
61590;SDS011;57639;52.410;-1.966;2022-08-20T10:36:04;2.33;;;1.00;;
61590;SDS011;57639;52.410;-1.966;2022-08-20T10:39:13;2.70;;;1.10;;
61590;SDS011;57639;52.410;-1.966;2022-08-20T10:42:21;3.85;;;1.25;;
61590;SDS011;57639;52.410;-1.966;2022-08-20T10:45:29;2.58;;;1.08;;
61590;SDS011;57639;52.410;-1.966;2022-08-20T10:48:36;2.55;;;1.20;;
61590;SDS011;57639;52.410;-1.966;2022-08-20T10:51:44;2.13;;;1.00;;
61590;SDS011;57639;52.410;-1.966;2022-08-20T10:54:51;2.47;;;1.10;;
61590;SDS011;57639;52.410;-1.966;2022-08-20T10:58:03;2.70;;;1.10;;
61590;SDS011;57639;52.410;-1.966;2022-08-20T11:01:12;3.33;;;1.23;;
61590;SDS011;57639;52.410;-1.966;2022-08-20T11:04:37;2.50;;;1.20;;
61590;SDS011;57639;52.410;-1.966;2022-08-20T11:07:44;3.15;;;1.35;;
61590;SDS011;57639;52.410;-1.966;2022-08-20T11:10:59;3.00;;;1.10;;
61590;SDS011;57639;52.410;-1.966;2022-08-20T11:14:07;2.85;;;1.00;;
61590;SDS011;57639;52.410;-1.966;2022-08-20T11:17:18;3.13;;;1.35;;
61590;SDS011;57639;52.410;-1.966;2022-08-20T11:20:25;3.10;;;1.38;;
61590;SDS011;57639;52.410;-1.966;2022-08-20T11:23:34;2.72;;;1.13;;
61590;SDS011;57639;52.410;-1.966;2022-08-20T11:26:40;3.08;;;1.25;;
61590;SDS011;57639;52.410;-1.966;2022-08-20T11:29:50;3.00;;;1.08;;
61590;SDS011;57639;52.410;-1.966;2022-08-20T11:32:57;3.05;;;1.10;;
61590;SDS011;57639;52.410;-1.966;2022-08-20T11:36:05;2.40;;;1.07;;
61590;SDS011;57639;52.410;-1.966;2022-08-20T11:39:14;2.60;;;1.10;;
61590;SDS011;57639;52.410;-1.966;2022-08-20T11:42:22;3.78;;;1.17;;
61590;SDS011;57639;52.410;-1.966;2022-08-20T11:45:30;3.13;;;1.00;;
61590;SDS011;57639;52.410;-1.966;2022-08-20T11:48:40;2.15;;;1.10;;
61590;SDS011;57639;52.410;-1.966;2022-08-20T11:51:46;3.65;;;1.33;;
61590;SDS011;57639;52.410;-1.966;2022-08-20T11:54:54;1.90;;;1.00;;
61590;SDS011;57639;52.410;-1.966;2022-08-20T11:57:59;2.63;;;1.10;;
61590;SDS011;57639;52.410;-1.966;2022-08-20T12:01:09;2.33;;;1.10;;
61590;SDS011;57639;52.410;-1.966;2022-08-20T12:04:15;3.75;;;1.20;;
61590;SDS011;57639;52.410;-1.966;2022-08-20T12:07:24;2.03;;;1.00;;
61590;SDS011;57639;52.410;-1.966;2022-08-20T12:10:30;2.50;;;1.23;;
61590;SDS011;57639;52.410;-1.966;2022-08-20T12:13:38;3.22;;;1.30;;
61590;SDS011;57639;52.410;-1.966;2022-08-20T12:16:52;2.55;;;1.10;;
61590;SDS011;57639;52.410;-1.966;2022-08-20T12:20:01;2.25;;;1.00;;
61590;SDS011;57639;52.410;-1.966;2022-08-20T12:23:15;3.75;;;1.30;;
61590;SDS011;57639;52.410;-1.966;2022-08-20T12:26:22;2.78;;;1.20;;
61590;SDS011;57639;52.410;-1.966;2022-08-20T12:29:28;2.42;;;1.15;;
61590;SDS011;57639;52.410;-1.966;2022-08-20T12:32:42;3.50;;;1.30;;
61590;SDS011;57639;52.410;-1.966;2022-08-20T12:35:48;3.15;;;1.05;;
61590;SDS011;57639;52.410;-1.966;2022-08-20T12:38:55;2.42;;;1.15;;
61590;SDS011;57639;52.410;-1.966;2022-08-20T12:42:02;2.60;;;1.10;;
61590;SDS011;57639;52.410;-1.966;2022-08-20T12:45:10;2.80;;;1.10;;
61590;SDS011;57639;52.410;-1.966;2022-08-20T12:48:19;3.08;;;1.35;;
61590;SDS011;57639;52.410;-1.966;2022-08-20T12:51:26;2.15;;;1.17;;
61590;SDS011;57639;52.410;-1.966;2022-08-20T12:54:32;1.83;;;1.10;;
61590;SDS011;57639;52.410;-1.966;2022-08-20T12:57:41;1.85;;;1.05;;
61590;SDS011;57639;52.410;-1.966;2022-08-20T13:00:48;3.47;;;1.13;;
61590;SDS011;57639;52.410;-1.966;2022-08-20T13:03:58;2.08;;;1.10;;
61590;SDS011;57639;52.410;-1.966;2022-08-20T13:07:04;2.47;;;1.30;;
61590;SDS011;57639;52.410;-1.966;2022-08-20T13:10:14;2.50;;;1.17;;
61590;SDS011;57639;52.410;-1.966;2022-08-20T13:13:22;3.55;;;1.30;;
61590;SDS011;57639;52.410;-1.966;2022-08-20T13:16:30;2.03;;;1.10;;
61590;SDS011;57639;52.410;-1.966;2022-08-20T13:19:39;2.22;;;1.10;;
61590;SDS011;57639;52.410;-1.966;2022-08-20T13:22:48;2.15;;;1.23;;
61590;SDS011;57639;52.410;-1.966;2022-08-20T13:25:53;2.38;;;1.25;;
61590;SDS011;57639;52.410;-1.966;2022-08-20T13:29:01;2.67;;;1.40;;
61590;SDS011;57639;52.410;-1.966;2022-08-20T13:32:06;2.15;;;1.30;;
61590;SDS011;57639;52.410;-1.966;2022-08-20T13:35:17;2.80;;;1.35;;
61590;SDS011;57639;52.410;-1.966;2022-08-20T13:38:23;3.00;;;1.40;;
61590;SDS011;57639;52.410;-1.966;2022-08-20T13:41:31;3.00;;;1.48;;
61590;SDS011;57639;52.410;-1.966;2022-08-20T13:44:36;2.53;;;1.23;;
61590;SDS011;57639;52.410;-1.966;2022-08-20T13:47:44;3.05;;;1.30;;
61590;SDS011;57639;52.410;-1.966;2022-08-20T13:50:53;3.05;;;1.30;;
61590;SDS011;57639;52.410;-1.966;2022-08-20T13:54:01;2.45;;;1.30;;
61590;SDS011;57639;52.410;-1.966;2022-08-20T13:57:13;2.65;;;1.45;;
61590;SDS011;57639;52.410;-1.966;2022-08-20T14:00:23;2.30;;;1.20;;
61590;SDS011;57639;52.410;-1.966;2022-08-20T14:03:32;3.03;;;1.35;;
61590;SDS011;57639;52.410;-1.966;2022-08-20T14:06:45;3.15;;;1.45;;
61590;SDS011;57639;52.410;-1.966;2022-08-20T14:09:51;2.20;;;1.50;;
61590;SDS011;57639;52.410;-1.966;2022-08-20T14:13:00;4.57;;;1.60;;
61590;SDS011;57639;52.410;-1.966;2022-08-20T14:16:07;2.90;;;1.45;;
61590;SDS011;57639;52.410;-1.966;2022-08-20T14:19:28;3.42;;;1.25;;
61590;SDS011;57639;52.410;-1.966;2022-08-20T14:22:36;3.15;;;1.50;;
61590;SDS011;57639;52.410;-1.966;2022-08-20T14:25:47;2.03;;;1.40;;
61590;SDS011;57639;52.410;-1.966;2022-08-20T14:28:53;3.67;;;1.50;;
61590;SDS011;57639;52.410;-1.966;2022-08-20T14:32:01;2.90;;;1.38;;
61590;SDS011;57639;52.410;-1.966;2022-08-20T14:35:07;2.95;;;1.50;;
61590;SDS011;57639;52.410;-1.966;2022-08-20T14:38:18;3.17;;;1.48;;
61590;SDS011;57639;52.410;-1.966;2022-08-20T14:41:24;2.50;;;1.40;;
61590;SDS011;57639;52.410;-1.966;2022-08-20T14:44:31;2.17;;;1.13;;
61590;SDS011;57639;52.410;-1.966;2022-08-20T14:47:37;2.47;;;1.40;;
61590;SDS011;57639;52.410;-1.966;2022-08-20T14:50:47;4.15;;;1.70;;
61590;SDS011;57639;52.410;-1.966;2022-08-20T14:53:55;3.20;;;1.42;;
61590;SDS011;57639;52.410;-1.966;2022-08-20T14:57:03;5.32;;;1.48;;
61590;SDS011;57639;52.410;-1.966;2022-08-20T15:00:14;4.22;;;1.40;;
61590;SDS011;57639;52.410;-1.966;2022-08-20T15:03:24;3.85;;;1.65;;
61590;SDS011;57639;52.410;-1.966;2022-08-20T15:06:31;2.58;;;1.50;;
61590;SDS011;57639;52.410;-1.966;2022-08-20T15:09:43;5.13;;;1.52;;
61590;SDS011;57639;52.410;-1.966;2022-08-20T15:12:49;3.13;;;1.45;;
61590;SDS011;57639;52.410;-1.966;2022-08-20T15:15:57;2.47;;;1.30;;
61590;SDS011;57639;52.410;-1.966;2022-08-20T15:19:03;2.65;;;1.55;;
61590;SDS011;57639;52.410;-1.966;2022-08-20T15:22:10;3.50;;;1.40;;
61590;SDS011;57639;52.410;-1.966;2022-08-20T15:25:20;2.65;;;1.45;;
61590;SDS011;57639;52.410;-1.966;2022-08-20T15:28:29;2.70;;;1.60;;
61590;SDS011;57639;52.410;-1.966;2022-08-20T15:31:35;2.33;;;1.30;;
61590;SDS011;57639;52.410;-1.966;2022-08-20T15:34:47;2.60;;;1.48;;
61590;SDS011;57639;52.410;-1.966;2022-08-20T15:37:53;1.85;;;1.30;;
61590;SDS011;57639;52.410;-1.966;2022-08-20T15:41:05;3.13;;;1.30;;
61590;SDS011;57639;52.410;-1.966;2022-08-20T15:44:10;2.42;;;1.40;;
61590;SDS011;57639;52.410;-1.966;2022-08-20T15:47:19;3.30;;;1.52;;
61590;SDS011;57639;52.410;-1.966;2022-08-20T15:50:34;2.13;;;1.40;;
61590;SDS011;57639;52.410;-1.966;2022-08-20T15:53:52;2.20;;;1.45;;
61590;SDS011;57639;52.410;-1.966;2022-08-20T15:57:04;2.22;;;1.23;;
61590;SDS011;57639;52.410;-1.966;2022-08-20T16:00:17;2.50;;;1.40;;
61590;SDS011;57639;52.410;-1.966;2022-08-20T16:07:01;2.90;;;1.30;;
61590;SDS011;57639;52.410;-1.966;2022-08-20T16:10:11;2.67;;;1.40;;
61590;SDS011;57639;52.410;-1.966;2022-08-20T16:13:28;3.22;;;1.55;;
61590;SDS011;57639;52.410;-1.966;2022-08-20T16:16:38;2.72;;;1.33;;
61590;SDS011;57639;52.410;-1.966;2022-08-20T16:19:50;2.30;;;1.45;;
61590;SDS011;57639;52.410;-1.966;2022-08-20T16:23:01;2.25;;;1.27;;
61590;SDS011;57639;52.410;-1.966;2022-08-20T16:26:13;3.13;;;1.70;;
61590;SDS011;57639;52.410;-1.966;2022-08-20T16:29:41;3.28;;;1.40;;
61590;SDS011;57639;52.410;-1.966;2022-08-20T16:32:57;2.10;;;1.30;;
61590;SDS011;57639;52.410;-1.966;2022-08-20T16:36:12;3.45;;;1.40;;
61590;SDS011;57639;52.410;-1.966;2022-08-20T16:39:24;2.75;;;1.65;;
61590;SDS011;57639;52.410;-1.966;2022-08-20T16:42:36;2.65;;;1.50;;
61590;SDS011;57639;52.410;-1.966;2022-08-20T16:45:50;2.42;;;1.38;;
61590;SDS011;57639;52.410;-1.966;2022-08-20T16:49:02;4.15;;;1.55;;
61590;SDS011;57639;52.410;-1.966;2022-08-20T16:52:16;2.63;;;1.60;;
61590;SDS011;57639;52.410;-1.966;2022-08-20T16:55:25;2.57;;;1.63;;
61590;SDS011;57639;52.410;-1.966;2022-08-20T16:58:33;4.43;;;2.13;;
61590;SDS011;57639;52.410;-1.966;2022-08-20T17:01:46;2.97;;;1.70;;
61590;SDS011;57639;52.410;-1.966;2022-08-20T17:05:13;3.60;;;2.00;;
61590;SDS011;57639;52.410;-1.966;2022-08-20T17:08:21;4.38;;;2.10;;
61590;SDS011;57639;52.410;-1.966;2022-08-20T17:11:33;4.47;;;2.22;;
61590;SDS011;57639;52.410;-1.966;2022-08-20T17:14:42;5.45;;;2.80;;
61590;SDS011;57639;52.410;-1.966;2022-08-20T17:17:55;5.07;;;2.90;;
61590;SDS011;57639;52.410;-1.966;2022-08-20T17:21:02;6.15;;;3.50;;
61590;SDS011;57639;52.410;-1.966;2022-08-20T17:24:15;4.90;;;3.20;;
61590;SDS011;57639;52.410;-1.966;2022-08-20T17:27:27;9.10;;;3.08;;
61590;SDS011;57639;52.410;-1.966;2022-08-20T17:30:44;4.95;;;3.35;;
61590;SDS011;57639;52.410;-1.966;2022-08-20T17:33:53;7.60;;;3.33;;
61590;SDS011;57639;52.410;-1.966;2022-08-20T17:37:08;9.55;;;3.38;;
61590;SDS011;57639;52.410;-1.966;2022-08-20T17:40:26;5.45;;;3.17;;
61590;SDS011;57639;52.410;-1.966;2022-08-20T17:43:37;7.47;;;2.88;;
61590;SDS011;57639;52.410;-1.966;2022-08-20T17:46:45;8.18;;;3.70;;
61590;SDS011;57639;52.410;-1.966;2022-08-20T17:49:58;6.47;;;3.35;;
61590;SDS011;57639;52.410;-1.966;2022-08-20T17:53:12;5.35;;;3.20;;
61590;SDS011;57639;52.410;-1.966;2022-08-20T17:56:26;6.80;;;3.47;;
61590;SDS011;57639;52.410;-1.966;2022-08-20T17:59:36;4.28;;;2.90;;
61590;SDS011;57639;52.410;-1.966;2022-08-20T18:03:07;7.47;;;3.30;;
61590;SDS011;57639;52.410;-1.966;2022-08-20T18:06:24;5.93;;;2.90;;
61590;SDS011;57639;52.410;-1.966;2022-08-20T18:09:42;7.55;;;2.80;;
61590;SDS011;57639;52.410;-1.966;2022-08-20T18:13:03;6.03;;;3.17;;
61590;SDS011;57639;52.410;-1.966;2022-08-20T18:16:22;5.93;;;3.00;;
61590;SDS011;57639;52.410;-1.966;2022-08-20T18:19:37;6.20;;;3.03;;
61590;SDS011;57639;52.410;-1.966;2022-08-20T18:23:09;5.45;;;2.97;;
61590;SDS011;57639;52.410;-1.966;2022-08-20T18:26:18;4.97;;;3.10;;
61590;SDS011;57639;52.410;-1.966;2022-08-20T18:29:32;3.58;;;2.50;;
61590;SDS011;57639;52.410;-1.966;2022-08-20T18:32:41;4.80;;;2.88;;
61590;SDS011;57639;52.410;-1.966;2022-08-20T18:35:49;5.50;;;2.50;;
61590;SDS011;57639;52.410;-1.966;2022-08-20T18:38:59;4.85;;;2.88;;
61590;SDS011;57639;52.410;-1.966;2022-08-20T18:42:19;4.75;;;2.83;;
61590;SDS011;57639;52.410;-1.966;2022-08-20T18:45:28;6.53;;;3.00;;
61590;SDS011;57639;52.410;-1.966;2022-08-20T18:48:37;6.30;;;2.60;;
61590;SDS011;57639;52.410;-1.966;2022-08-20T18:52:06;3.97;;;2.50;;
61590;SDS011;57639;52.410;-1.966;2022-08-20T18:55:29;4.40;;;2.85;;
61590;SDS011;57639;52.410;-1.966;2022-08-20T18:58:48;3.78;;;2.42;;
61590;SDS011;57639;52.410;-1.966;2022-08-20T19:02:00;5.88;;;2.50;;